Time;durP1;ratioP1;P1;durP2;ratioP2;P2;SDS_P1;SDS_P2;PMS_P1;PMS_P2;Temp;Humidity;BMP_temperature;BMP_pressure;BME280_temperature;BME280_humidity;BME280_pressure;Samples;Min_cycle;Max_cycle;Signal;HPM_P1;HPM_P2
2023/10/30 00:01:51;;;;;;;6.03;1.58;;;;;;;12.22;87.97;63255.41;4973963;28;20220;-83
2023/10/30 00:04:18;;;;;;;2.58;1.98;;;;;;;12.13;88.94;63251.22;4973900;29;20185;-82
2023/10/30 00:06:45;;;;;;;1.73;1.30;;;;;;;12.11;89.94;63249.66;4973018;28;20260;-81
2023/10/30 00:09:14;;;;;;;5.35;2.40;;;;;;;12.05;90.44;63240.34;4977397;29;20243;-82
2023/10/30 00:11:42;;;;;;;2.63;1.42;;;;;;;12.03;90.98;63238.78;4972676;28;20406;-80
2023/10/30 00:14:09;;;;;;;1.35;1.25;;;;;;;12.03;92.23;63241.34;4973534;28;20214;-82
2023/10/30 00:16:36;;;;;;;6.32;2.03;;;;;;;11.95;93.58;63227.44;4970797;28;20320;-82
2023/10/30 00:19:04;;;;;;;4.00;1.77;;;;;;;11.93;94.51;63231.00;4972278;28;20203;-83
2023/10/30 00:21:31;;;;;;;3.90;1.75;;;;;;;11.85;94.74;63222.19;4974241;28;20253;-81
2023/10/30 00:23:59;;;;;;;3.78;2.13;;;;;;;11.91;95.75;63230.97;4966760;28;20213;-81
2023/10/30 00:26:26;;;;;;;3.75;2.13;;;;;;;11.94;95.66;63231.50;4971115;28;20271;-81
2023/10/30 00:28:55;;;;;;;3.10;2.00;;;;;;;11.92;95.74;63235.06;4972801;29;20260;-81
2023/10/30 00:31:22;;;;;;;3.08;2.28;;;;;;;11.96;96.41;63236.16;4973017;28;20256;-80
2023/10/30 00:33:49;;;;;;;2.20;1.75;;;;;;;11.92;96.69;63229.97;4972320;28;20220;-83
2023/10/30 00:36:16;;;;;;;2.42;2.22;;;;;;;11.85;96.79;63220.16;4975849;28;20264;-82
2023/10/30 00:38:42;;;;;;;1.52;1.40;;;;;;;11.85;97.49;63222.72;4973316;28;20469;-82
2023/10/30 00:41:10;;;;;;;4.28;1.83;;;;;;;11.92;97.44;63229.44;4974527;29;20228;-82
2023/10/30 00:43:37;;;;;;;2.58;1.45;;;;;;;11.97;96.50;63240.25;4972520;28;20248;-81
2023/10/30 00:46:06;;;;;;;2.75;1.85;;;;;;;11.87;97.40;63222.22;4971220;28;20303;-84
2023/10/30 00:48:33;;;;;;;1.92;1.83;;;;;;;11.81;97.18;63212.94;4965285;29;20272;-82
2023/10/30 00:51:00;;;;;;;2.38;2.10;;;;;;;11.89;96.62;63224.28;4970845;29;20236;-82
2023/10/30 00:53:27;;;;;;;2.72;2.20;;;;;;;11.96;94.21;63234.09;4959175;28;20200;-82
2023/10/30 00:55:55;;;;;;;1.92;1.70;;;;;;;11.96;93.38;63231.53;4962564;29;20224;-81
2023/10/30 00:58:22;;;;;;;1.77;1.67;;;;;;;11.93;92.85;63230.47;4969857;29;20205;-81
2023/10/30 01:00:49;;;;;;;2.13;1.90;;;;;;;11.97;92.41;63232.59;4967942;28;20240;-81
2023/10/30 01:03:23;;;;;;;4.15;1.88;;;;;;;11.93;92.15;63228.44;4963352;29;20201;-83
2023/10/30 01:05:57;;;;;;;3.17;2.17;;;;;;;11.89;91.60;63226.84;4965626;28;20271;-82
2023/10/30 01:08:24;;;;;;;4.28;1.73;;;;;;;11.94;91.05;63228.97;4959251;29;20212;-81
2023/10/30 01:10:51;;;;;;;5.43;2.00;;;;;;;11.92;91.68;63227.41;4957538;29;20226;-81
2023/10/30 01:13:19;;;;;;;2.55;1.67;;;;;;;11.90;92.06;63232.47;4974985;28;20223;-82
2023/10/30 01:15:46;;;;;;;2.08;1.50;;;;;;;11.86;92.36;63226.28;4973580;28;20259;-81
2023/10/30 01:18:13;;;;;;;2.88;1.75;;;;;;;11.79;93.13;63219.03;4971250;28;20205;-82
2023/10/30 01:20:42;;;;;;;2.05;1.95;;;;;;;11.73;93.41;63212.31;4954523;29;20565;-80
2023/10/30 01:23:09;;;;;;;2.90;2.00;;;;;;;11.66;93.60;63200.47;4958410;29;20276;-85
2023/10/30 01:25:38;;;;;;;1.65;1.55;;;;;;;11.55;93.47;63194.66;4971396;28;20263;-83
2023/10/30 01:28:06;;;;;;;2.35;1.60;;;;;;;11.55;93.77;63189.03;4969877;28;20260;-84
2023/10/30 01:30:33;;;;;;;4.00;1.98;;;;;;;11.46;94.18;63182.78;4971660;29;20223;-82
2023/10/30 01:33:00;;;;;;;8.43;1.90;;;;;;;11.45;94.25;63176.13;4972833;29;20230;-83
2023/10/30 01:35:27;;;;;;;1.98;1.60;;;;;;;11.40;94.46;63178.63;4972494;29;20236;-83
2023/10/30 01:37:58;;;;;;;1.95;1.38;;;;;;;11.38;94.34;63171.44;4968419;29;20209;-82
2023/10/30 01:40:25;;;;;;;1.85;1.67;;;;;;;11.29;94.42;63159.56;4978826;28;20220;-82
2023/10/30 01:42:52;;;;;;;2.65;1.58;;;;;;;11.33;94.75;63166.78;4985268;28;20538;-81
2023/10/30 01:45:20;;;;;;;1.77;1.60;;;;;;;11.30;94.96;63163.16;4972635;29;20262;-82
2023/10/30 01:47:47;;;;;;;2.33;1.52;;;;;;;11.26;95.21;63159.53;4967923;29;20197;-81
2023/10/30 01:50:16;;;;;;;1.95;1.60;;;;;;;11.25;95.29;63161.03;4971313;28;20192;-81
2023/10/30 01:52:45;;;;;;;4.63;1.70;;;;;;;11.23;95.73;63158.97;4971139;28;20203;-80
2023/10/30 01:55:14;;;;;;;4.25;1.67;;;;;;;11.01;97.25;63136.19;4968703;28;20236;-82
2023/10/30 01:57:42;;;;;;;2.58;1.65;;;;;;;10.92;97.83;63124.34;4970151;29;20220;-81
2023/10/30 02:00:13;;;;;;;4.05;1.90;;;;;;;10.93;98.16;63122.81;4972900;29;20209;-81
2023/10/30 02:02:39;;;;;;;4.30;2.40;;;;;;;10.92;98.25;63129.44;4971158;29;20200;-82
2023/10/30 02:05:08;;;;;;;1.90;1.80;;;;;;;10.85;98.90;63124.19;4967726;28;20192;-82
2023/10/30 02:07:36;;;;;;;2.08;1.42;;;;;;;10.80;99.04;63111.38;4973483;28;20231;-80
2023/10/30 02:10:03;;;;;;;2.67;2.15;;;;;;;10.82;99.81;63113.97;4971113;28;20228;-81
2023/10/30 02:12:32;;;;;;;1.92;1.80;;;;;;;10.78;100.00;63112.38;4971216;29;20213;-83
2023/10/30 02:14:59;;;;;;;4.78;1.92;;;;;;;10.76;100.00;63107.75;4972140;28;20236;-82
2023/10/30 02:17:26;;;;;;;3.47;2.72;;;;;;;10.76;100.00;63107.75;4972189;28;20267;-81
2023/10/30 02:19:53;;;;;;;7.13;2.58;;;;;;;10.68;100.00;63102.03;4969466;28;20224;-81
2023/10/30 02:22:20;;;;;;;2.80;2.55;;;;;;;10.66;100.00;63099.97;4973940;28;20531;-81
2023/10/30 17:14:02;;;;;;;5.73;3.40;;;;;;;15.54;67.96;63604.19;6077580;23;1707887;-82
2023/10/30 17:16:29;;;;;;;4.60;3.17;;;;;;;15.45;68.50;63592.25;6144083;23;20578;-82
2023/10/30 17:18:59;;;;;;;5.35;3.53;;;;;;;15.48;69.21;63597.44;6146649;23;20188;-84
2023/10/30 17:21:28;;;;;;;7.18;3.78;;;;;;;15.26;69.88;63572.50;6147935;23;20168;-83
2023/10/30 17:23:55;;;;;;;4.32;2.83;;;;;;;15.22;69.73;63572.94;6145036;23;20219;-82
2023/10/30 17:26:22;;;;;;;3.08;2.85;;;;;;;15.38;70.07;63592.66;6145563;23;20366;-82
2023/10/30 17:28:49;;;;;;;5.45;3.20;;;;;;;15.27;69.82;63576.09;6146633;23;20420;-82
2023/10/30 17:31:19;;;;;;;6.38;3.33;;;;;;;15.24;70.24;63569.91;6146550;23;20226;-83
2023/10/30 17:33:47;;;;;;;5.60;2.88;;;;;;;15.10;70.39;63561.00;6145711;23;20191;-82
2023/10/30 17:36:14;;;;;;;5.90;2.47;;;;;;;15.19;69.19;63562.66;6145993;23;20182;-82
2023/10/30 17:38:41;;;;;;;6.90;2.88;;;;;;;15.08;68.48;63556.88;6144173;23;20559;-83
2023/10/30 17:41:09;;;;;;;2.97;2.78;;;;;;;15.02;68.22;63548.06;6144904;23;20361;-83
2023/10/30 17:43:37;;;;;;;2.20;2.10;;;;;;;14.95;67.23;63543.38;6145608;23;20195;-83
2023/10/30 17:46:04;;;;;;;6.78;2.53;;;;;;;14.88;66.90;63533.53;6119578;23;20171;-83
2023/10/30 17:48:33;;;;;;;3.58;2.60;;;;;;;14.94;65.78;63546.94;6144852;23;20201;-83
2023/10/30 17:51:00;;;;;;;2.30;2.10;;;;;;;15.13;66.05;63561.56;6145173;23;20222;-83
2023/10/30 17:53:28;;;;;;;5.00;1.65;;;;;;;15.14;64.78;63562.06;6143936;23;20195;-82
2023/10/30 17:55:55;;;;;;;1.70;1.60;;;;;;;15.14;64.33;63562.59;6143989;23;20222;-84
2023/10/30 17:58:22;;;;;;;2.58;1.88;;;;;;;15.24;63.01;63575.03;6144758;23;20203;-83
2023/10/30 18:00:50;;;;;;;3.15;2.40;;;;;;;15.32;62.34;63575.66;6145657;23;20167;-83
2023/10/30 18:03:17;;;;;;;6.47;2.63;;;;;;;15.47;62.60;63591.78;6146377;23;20274;-82
2023/10/30 18:05:46;;;;;;;8.85;2.55;;;;;;;15.38;62.26;63587.53;6145483;23;20332;-81
2023/10/30 18:08:13;;;;;;;2.90;2.40;;;;;;;15.38;62.53;63589.56;6145715;23;20195;-83
2023/10/30 18:10:40;;;;;;;3.53;2.15;;;;;;;15.17;63.06;63565.69;6143137;23;20219;-84
2023/10/30 18:13:08;;;;;;;5.90;2.47;;;;;;;15.19;63.56;63572.91;6143459;23;20227;-84
2023/10/30 18:15:35;;;;;;;3.40;2.10;;;;;;;15.04;64.12;63550.16;6145525;23;20262;-83
2023/10/30 18:18:03;;;;;;;5.32;2.33;;;;;;;15.00;64.23;63545.47;6146772;23;20195;-83
2023/10/30 18:20:35;;;;;;;3.33;2.75;;;;;;;14.93;65.73;63538.72;6143831;23;20428;-84
2023/10/30 18:23:04;;;;;;;3.17;2.10;;;;;;;14.90;66.08;63537.66;6146176;23;20191;-82
2023/10/30 18:25:32;;;;;;;3.88;2.25;;;;;;;14.74;66.24;63518.47;6145365;23;20183;-83
2023/10/30 18:28:00;;;;;;;5.95;2.60;;;;;;;14.88;65.95;63536.09;6143793;23;20497;-83
2023/10/30 18:30:28;;;;;;;3.17;1.92;;;;;;;14.82;64.08;63532.41;6146652;23;20203;-81
2023/10/30 18:32:55;;;;;;;4.32;2.88;;;;;;;14.97;65.10;63540.31;6146937;23;20262;-83
2023/10/30 18:35:22;;;;;;;3.20;3.00;;;;;;;14.84;65.88;63528.88;6146383;23;20185;-83
2023/10/30 18:37:50;;;;;;;5.07;3.17;;;;;;;14.97;65.44;63545.44;6144540;23;20191;-82
2023/10/30 18:40:20;;;;;;;3.78;3.08;;;;;;;14.93;65.34;63541.28;6144542;23;20242;-84
2023/10/30 18:42:49;;;;;;;9.35;2.65;;;;;;;14.94;65.20;63541.81;6145021;23;20246;-83
2023/10/30 18:45:16;;;;;;;4.50;2.42;;;;;;;14.97;65.26;63548.00;6147419;23;20163;-84
2023/10/30 18:47:43;;;;;;;6.65;2.40;;;;;;;14.87;66.08;63531.97;6149331;23;20184;-83
2023/10/30 18:50:11;;;;;;;3.13;2.85;;;;;;;14.88;66.56;63538.13;6144716;23;20391;-83
2023/10/30 18:52:38;;;;;;;2.17;1.98;;;;;;;14.95;65.97;63545.41;6142667;23;20203;-84
2023/10/30 18:55:06;;;;;;;4.45;2.00;;;;;;;14.85;67.02;63535.03;6141665;23;20179;-82
2023/10/30 18:57:35;;;;;;;5.47;2.17;;;;;;;14.85;67.27;63537.59;6144815;23;20191;-82
2023/10/30 19:00:02;;;;;;;4.97;2.90;;;;;;;14.76;67.73;63528.75;6145631;23;20179;-82
2023/10/30 19:02:31;;;;;;;2.17;1.98;;;;;;;14.77;67.42;63522.09;6147418;23;20195;-84
2023/10/30 19:04:58;;;;;;;2.60;1.88;;;;;;;14.71;67.47;63515.88;6141470;23;20200;-82
2023/10/30 19:07:27;;;;;;;3.70;2.60;;;;;;;14.80;66.59;63527.25;6141848;23;20196;-83
2023/10/30 19:09:54;;;;;;;3.33;2.08;;;;;;;14.73;66.71;63517.44;6142311;23;20195;-84
2023/10/30 19:12:21;;;;;;;4.63;2.45;;;;;;;14.66;67.32;63513.25;6142899;23;20221;-84
2023/10/30 19:14:51;;;;;;;3.03;2.70;;;;;;;14.63;67.75;63509.59;6151756;23;20168;-83
2023/10/30 19:17:20;;;;;;;3.38;2.15;;;;;;;14.52;67.53;63493.56;6150374;23;20408;-85
2023/10/30 19:19:48;;;;;;;4.60;2.63;;;;;;;14.49;67.98;63492.50;6144716;23;20171;-84
2023/10/30 19:22:15;;;;;;;6.45;3.45;;;;;;;14.44;67.70;63485.28;6145122;23;20175;-83
2023/10/30 19:24:43;;;;;;;5.43;3.90;;;;;;;14.41;67.63;63484.72;6146331;23;20487;-83
2023/10/30 19:27:10;;;;;;;9.65;6.97;;;;;;;14.49;67.64;63495.59;6143587;23;20189;-84
2023/10/30 19:29:39;;;;;;;14.00;7.43;;;;;;;14.33;67.82;63478.44;6148766;23;20176;-84
2023/10/30 19:32:08;;;;;;;7.97;4.72;;;;;;;14.29;67.65;63474.81;6147029;23;20214;-85
2023/10/30 19:34:36;;;;;;;4.40;2.75;;;;;;;14.27;67.75;63477.34;6145652;23;20206;-86
2023/10/30 19:37:04;;;;;;;7.43;4.00;;;;;;;14.36;69.12;63479.00;6146303;23;20472;-84
2023/10/30 19:39:31;;;;;;;6.95;4.85;;;;;;;14.34;68.74;63480.00;6145300;23;20192;-82
2023/10/30 19:41:58;;;;;;;10.05;7.45;;;;;;;14.28;68.79;63476.34;6144989;23;20423;-83
2023/10/30 19:44:26;;;;;;;18.48;10.60;;;;;;;14.34;68.89;63482.56;6147625;23;20175;-82
2023/10/30 19:46:53;;;;;;;20.25;11.10;;;;;;;14.14;69.07;63461.25;6146998;23;20183;-84
2023/10/30 19:49:22;;;;;;;12.93;9.45;;;;;;;14.17;69.59;63462.31;6145370;23;20218;-83
2023/10/30 19:51:50;;;;;;;6.95;3.00;;;;;;;14.27;68.94;63472.72;6149608;23;20199;-84
2023/10/30 19:54:18;;;;;;;4.53;3.33;;;;;;;14.05;69.67;63447.31;6148399;23;20187;-83
2023/10/30 19:56:45;;;;;;;3.30;2.30;;;;;;;14.20;68.32;63462.91;6150985;23;20183;-83
2023/10/30 19:59:12;;;;;;;5.95;3.30;;;;;;;14.23;67.85;63466.00;6149372;23;20186;-84
2023/10/30 20:01:40;;;;;;;5.50;2.88;;;;;;;14.21;67.73;63460.84;6147918;23;20155;-83
2023/10/30 20:04:07;;;;;;;3.85;3.45;;;;;;;14.17;68.58;63457.19;6144170;23;20305;-84
2023/10/30 20:06:35;;;;;;;2.78;2.60;;;;;;;14.10;68.84;63457.13;6146756;23;20198;-85
2023/10/30 20:09:03;;;;;;;66.05;32.13;;;;;;;14.07;69.49;63451.41;6146069;23;20195;-84
2023/10/30 20:11:30;;;;;;;6.57;4.00;;;;;;;13.87;69.79;63431.69;6146548;23;20246;-83
2023/10/30 20:13:57;;;;;;;10.75;3.92;;;;;;;13.93;69.89;63435.38;6147833;23;20198;-84
2023/10/30 20:16:25;;;;;;;5.13;2.80;;;;;;;13.82;70.06;63423.94;6149619;23;20238;-82
2023/10/30 20:18:53;;;;;;;26.90;13.75;;;;;;;13.94;69.94;63438.97;6145242;23;20195;-85
2023/10/30 20:21:20;;;;;;;4.93;3.10;;;;;;;13.91;70.08;63435.84;6143635;23;20176;-84
2023/10/30 20:23:49;;;;;;;2.35;2.08;;;;;;;13.93;69.93;63440.50;6145766;23;20206;-84
2023/10/30 20:26:19;;;;;;;1.95;1.77;;;;;;;13.89;69.90;63428.16;6145292;23;20179;-84
2023/10/30 20:28:47;;;;;;;3.08;2.80;;;;;;;13.95;70.68;63442.06;6149821;23;20195;-83
2023/10/30 20:31:14;;;;;;;3.45;2.67;;;;;;;13.83;70.58;63427.03;6149755;23;20228;-84
2023/10/30 20:33:41;;;;;;;2.10;1.90;;;;;;;13.74;71.24;63415.66;6145317;23;20219;-84
2023/10/30 20:36:09;;;;;;;6.28;2.90;;;;;;;13.79;70.83;63425.44;6145001;23;20171;-85
2023/10/30 20:38:37;;;;;;;5.20;2.55;;;;;;;13.71;71.56;63412.03;6145173;23;20191;-83
2023/10/30 20:41:06;;;;;;;7.43;2.58;;;;;;;13.54;72.61;63396.94;6145516;23;20375;-84
2023/10/30 20:43:34;;;;;;;2.90;2.08;;;;;;;13.58;72.65;63399.03;6150984;23;20191;-84
2023/10/30 20:46:01;;;;;;;3.08;2.00;;;;;;;13.58;73.17;63395.97;6146587;23;20164;-85
2023/10/30 20:48:28;;;;;;;4.43;2.10;;;;;;;13.31;73.35;63376.16;6146278;23;20290;-85
2023/10/30 20:50:57;;;;;;;2.03;1.92;;;;;;;13.51;73.52;63394.34;6146527;23;20208;-85
2023/10/30 20:53:25;;;;;;;1.77;1.67;;;;;;;13.39;73.69;63381.38;6145099;23;20197;-84
2023/10/30 20:55:52;;;;;;;2.38;2.05;;;;;;;13.46;74.20;63388.63;6145125;23;20203;-84
2023/10/30 20:58:21;;;;;;;2.20;2.00;;;;;;;13.30;74.63;63372.03;6148659;23;20198;-84
2023/10/30 21:00:48;;;;;;;4.60;1.80;;;;;;;13.39;75.30;63379.31;6147963;23;20168;-84
2023/10/30 21:03:16;;;;;;;1.90;1.75;;;;;;;13.23;75.64;63360.19;6146448;23;20223;-84
2023/10/30 21:05:43;;;;;;;3.20;2.47;;;;;;;13.35;75.68;63380.31;6144194;23;20175;-84
2023/10/30 21:08:11;;;;;;;2.55;2.30;;;;;;;13.27;76.19;63366.88;6145141;23;20197;-83
2023/10/30 21:10:39;;;;;;;4.88;3.30;;;;;;;13.22;76.55;63363.75;6144584;23;20175;-84
2023/10/30 21:13:07;;;;;;;6.45;3.83;;;;;;;13.05;76.43;63343.53;6148697;23;20205;-84
2023/10/30 21:15:35;;;;;;;5.22;2.72;;;;;;;12.97;75.51;63338.31;6151432;23;20179;-83
2023/10/30 21:18:02;;;;;;;4.90;2.67;;;;;;;13.21;75.52;63363.22;6144849;23;20191;-83
2023/10/30 21:20:30;;;;;;;56.08;26.20;;;;;;;13.16;77.21;63354.94;6146183;23;20303;-82
2023/10/30 21:22:57;;;;;;;163.43;84.00;;;;;;;13.09;77.17;63353.31;6144102;23;20191;-84
2023/10/30 21:25:24;;;;;;;21.23;11.93;;;;;;;12.97;77.85;63338.31;6145295;23;20171;-82
2023/10/30 21:27:52;;;;;;;6.05;2.65;;;;;;;13.06;77.53;63352.25;6146835;23;20246;-83
2023/10/30 21:30:19;;;;;;;3.58;1.98;;;;;;;13.07;77.58;63343.56;6150728;23;20171;-84
2023/10/30 21:32:48;;;;;;;4.68;2.72;;;;;;;12.99;77.88;63342.41;6146376;23;20206;-83
2023/10/30 21:35:15;;;;;;;3.17;1.90;;;;;;;13.04;78.05;63342.50;6146972;23;20187;-83
2023/10/30 21:37:42;;;;;;;2.05;1.85;;;;;;;12.93;77.90;63336.19;6143185;23;20199;-83
2023/10/30 21:40:12;;;;;;;1.80;1.65;;;;;;;12.85;78.13;63325.84;6148482;23;20168;-84
2023/10/30 21:42:40;;;;;;;3.88;1.92;;;;;;;12.91;78.35;63329.00;6145868;23;20202;-83
2023/10/30 21:45:07;;;;;;;3.72;2.08;;;;;;;12.72;78.84;63317.47;6145274;23;20176;-86
2023/10/30 21:47:34;;;;;;;8.18;4.75;;;;;;;12.78;79.53;63321.69;6150371;23;20369;-85
2023/10/30 21:50:04;;;;;;;8.23;4.38;;;;;;;12.79;79.08;63317.59;6144234;23;20176;-83
2023/10/30 21:52:31;;;;;;;5.90;3.45;;;;;;;12.82;79.71;63322.22;6144534;23;20509;-83
2023/10/30 21:54:58;;;;;;;7.70;2.80;;;;;;;12.84;79.51;63317.13;6144631;23;20175;-84
2023/10/30 21:57:30;;;;;;;4.63;1.75;;;;;;;12.72;78.82;63310.34;6146161;23;20200;-85
2023/10/30 21:59:57;;;;;;;3.08;2.20;;;;;;;12.66;78.47;63306.69;6144911;23;20243;-84
2023/10/30 22:02:24;;;;;;;3.53;2.00;;;;;;;12.90;78.66;63335.63;6147187;23;20196;-84
2023/10/30 22:04:52;;;;;;;2.47;2.28;;;;;;;12.93;78.54;63336.69;6145805;23;20377;-84
2023/10/30 22:07:21;;;;;;;1.83;1.73;;;;;;;13.04;77.36;63345.59;6143237;23;20187;-83
2023/10/30 22:09:49;;;;;;;3.03;2.10;;;;;;;13.00;77.25;63341.41;6144491;23;20187;-83
2023/10/30 22:12:16;;;;;;;5.55;2.35;;;;;;;12.90;77.68;63335.63;6145150;23;20246;-82
2023/10/30 22:14:43;;;;;;;1.63;1.52;;;;;;;12.93;78.00;63329.03;6147180;23;20218;-83
2023/10/30 22:17:10;;;;;;;2.78;2.28;;;;;;;12.86;78.34;63326.38;6144076;23;20251;-83
2023/10/30 22:19:37;;;;;;;1.63;1.50;;;;;;;12.97;78.40;63335.22;6144045;23;20182;-82
2023/10/30 22:22:05;;;;;;;5.28;2.17;;;;;;;12.92;77.90;63330.56;6143960;23;20163;-83
2023/10/30 22:24:33;;;;;;;2.22;1.90;;;;;;;12.91;77.91;63332.06;6143430;23;20171;-82
2023/10/30 22:27:01;;;;;;;3.05;1.73;;;;;;;12.85;78.92;63318.19;6145061;23;20223;-82
2023/10/30 22:29:28;;;;;;;2.55;1.90;;;;;;;12.86;79.19;63326.88;6145140;23;20174;-82
2023/10/30 22:31:55;;;;;;;2.08;1.88;;;;;;;12.60;79.40;63303.00;6146465;23;20203;-83
2023/10/30 22:34:25;;;;;;;4.35;2.22;;;;;;;12.76;79.18;63317.03;6144392;23;20479;-83
2023/10/30 22:36:53;;;;;;;2.08;1.80;;;;;;;12.76;79.01;63317.03;6144007;23;20400;-83
2023/10/30 22:39:21;;;;;;;6.10;2.00;;;;;;;12.77;79.50;63320.63;6145814;23;20203;-82
2023/10/30 22:41:49;;;;;;;1.95;1.83;;;;;;;12.73;79.81;63316.47;6145564;23;20175;-84
2023/10/30 22:44:16;;;;;;;1.83;1.73;;;;;;;12.70;80.30;63305.19;6145397;23;20191;-80
2023/10/30 22:46:43;;;;;;;2.80;1.80;;;;;;;12.71;80.24;63311.84;6147291;23;20176;-81
2023/10/30 22:49:10;;;;;;;2.10;1.50;;;;;;;12.59;80.39;63299.41;6147387;23;20214;-81
2023/10/30 22:51:37;;;;;;;3.65;1.60;;;;;;;12.61;80.79;63300.97;6145836;23;20218;-83
2023/10/30 22:54:06;;;;;;;5.10;1.98;;;;;;;12.70;80.87;63310.81;6147244;23;20250;-82
2023/10/30 22:56:33;;;;;;;3.70;2.00;;;;;;;12.70;80.60;63310.31;6146620;23;20171;-82
2023/10/30 22:59:03;;;;;;;2.97;1.98;;;;;;;12.75;81.05;63312.94;6146033;23;20529;-81
2023/10/30 23:01:31;;;;;;;2.53;1.95;;;;;;;12.60;81.30;63299.91;6148742;23;20159;-84
2023/10/30 23:03:58;;;;;;;2.85;2.15;;;;;;;12.69;81.83;63309.78;6147323;23;20522;-82
2023/10/30 23:06:26;;;;;;;2.15;2.05;;;;;;;12.66;82.62;63308.72;6147008;23;20167;-82
2023/10/30 23:08:54;;;;;;;5.55;2.10;;;;;;;12.66;82.72;63301.03;6146169;23;20199;-83
2023/10/30 23:11:21;;;;;;;7.20;2.47;;;;;;;12.65;83.28;63302.53;6145677;23;20203;-81
2023/10/30 23:13:48;;;;;;;4.38;1.98;;;;;;;12.68;83.66;63306.19;6146530;23;20223;-84
2023/10/30 23:16:17;;;;;;;4.47;2.58;;;;;;;12.58;83.71;63292.75;6147111;23;20184;-85
2023/10/30 23:18:44;;;;;;;2.65;1.58;;;;;;;12.59;84.36;63296.34;6147959;23;20207;-83
2023/10/30 23:21:11;;;;;;;2.17;2.00;;;;;;;12.40;84.91;63279.72;6148945;23;20240;-84
2023/10/30 23:23:39;;;;;;;2.40;2.20;;;;;;;12.51;85.53;63291.09;6146696;23;20354;-85
2023/10/30 23:26:06;;;;;;;2.05;1.90;;;;;;;12.58;86.67;63297.88;6148424;23;20227;-83
2023/10/30 23:28:34;;;;;;;2.50;2.17;;;;;;;12.40;86.95;63279.72;6146998;23;20223;-82
2023/10/30 23:31:01;;;;;;;3.15;2.33;;;;;;;12.54;87.23;63293.72;6147562;23;20175;-81
2023/10/30 23:33:31;;;;;;;2.28;2.08;;;;;;;12.54;87.11;63293.72;6147798;23;20195;-83
2023/10/30 23:35:58;;;;;;;2.50;2.30;;;;;;;12.48;87.01;63282.91;6145818;23;20208;-82
2023/10/30 23:38:25;;;;;;;2.53;2.33;;;;;;;12.39;87.05;63278.16;6145228;23;20386;-84
2023/10/30 23:40:52;;;;;;;2.90;2.67;;;;;;;12.45;87.52;63282.34;6146733;23;20179;-82
2023/10/30 23:43:19;;;;;;;5.13;3.35;;;;;;;12.42;87.75;63276.69;6146010;23;20206;-82
2023/10/30 23:45:46;;;;;;;3.47;2.63;;;;;;;12.38;87.68;63282.75;6147043;23;20171;-84
2023/10/30 23:48:13;;;;;;;3.97;2.97;;;;;;;12.28;87.83;63267.28;6147530;23;20238;-84
2023/10/30 23:50:42;;;;;;;5.22;2.85;;;;;;;12.44;88.21;63281.28;6144018;23;20349;-84
2023/10/30 23:53:09;;;;;;;2.35;2.25;;;;;;;12.22;89.70;63263.06;6145041;23;20207;-83
2023/10/30 23:55:37;;;;;;;3.78;2.10;;;;;;;12.37;90.35;63273.53;6143679;23;20178;-81
2023/10/30 23:58:04;;;;;;;5.65;2.40;;;;;;;12.28;91.19;63264.72;6144316;23;20243;-82
